Time;durP1;ratioP1;P1;durP2;ratioP2;P2;SDS_P1;SDS_P2;PMS_P1;PMS_P2;Temp;Humidity;BMP_temperature;BMP_pressure;BME280_temperature;BME280_humidity;BME280_pressure;Samples;Min_cycle;Max_cycle;Signal;HPM_P1;HPM_P2
2023/08/31 06:09:24;;;;;;;11.40;7.40;;;;;;;;;;106157;1273;554588;-80
2023/08/31 06:12:21;;;;;;;13.20;7.40;;;;;;;;;;103567;1291;548061;-81
2023/08/31 06:15:52;;;;;;;11.20;7.50;;;;;;;;;;104005;1292;544758;-81
2023/08/31 06:19:38;;;;;;;12.80;8.80;;;;;;;;;;103629;1292;547914;-81
2023/08/31 06:23:13;;;;;;;14.60;8.20;;;;;;;;;;104656;1288;546438;-81
2023/08/31 06:26:51;;;;;;;11.50;8.10;;;;;;;;;;103680;1295;547784;-81
2023/08/31 06:30:29;;;;;;;13.30;8.70;;;;;;;;;;103772;1290;547820;-80
2023/08/31 06:34:06;;;;;;;14.30;9.00;;;;;;;;;;104053;1286;548333;-80
2023/08/31 06:37:45;;;;;;;11.70;7.90;;;;;;;;;;103630;1301;547988;-81
2023/08/31 06:41:24;;;;;;;15.00;7.30;;;;;;;;;;103651;1290;547983;-82
2023/08/31 06:44:58;;;;;;;11.70;8.10;;;;;;;;;;103626;1290;547755;-78
2023/08/31 06:48:36;;;;;;;11.20;7.60;;;;;;;;;;103502;1292;548453;-78
2023/08/31 06:52:07;;;;;;;10.50;8.10;;;;;;;;;;103722;1291;545711;-79
2023/08/31 06:55:52;;;;;;;10.00;7.20;;;;;;;;;;103559;1292;547806;-80
2023/08/31 06:59:28;;;;;;;11.50;6.80;;;;;;;;;;103660;1289;548138;-79
2023/08/31 07:03:06;;;;;;;10.00;7.20;;;;;;;;;;103974;1291;549346;-78
2023/08/31 07:06:40;;;;;;;11.00;6.80;;;;;;;;;;103894;1288;547975;-81
2023/08/31 07:10:21;;;;;;;11.50;6.70;;;;;;;;;;103964;1295;548194;-80
2023/08/31 07:13:59;;;;;;;9.40;6.30;;;;;;;;;;103610;1291;547867;-80
2023/08/31 07:17:36;;;;;;;16.70;8.20;;;;;;;;;;103580;1295;545912;-81
2023/08/31 07:21:13;;;;;;;13.80;7.80;;;;;;;;;;103583;1298;548191;-81
2023/08/31 07:24:51;;;;;;;10.90;6.80;;;;;;;;;;103867;1289;547986;-79
2023/08/31 07:28:28;;;;;;;10.30;6.40;;;;;;;;;;103650;1295;547956;-81
2023/08/31 07:32:06;;;;;;;9.00;6.30;;;;;;;;;;103522;1294;548069;-82
2023/08/31 07:35:38;;;;;;;12.50;7.00;;;;;;;;;;104007;1289;544989;-78
2023/08/31 07:39:20;;;;;;;11.90;8.00;;;;;;;;;;103702;1292;548256;-78
2023/08/31 07:42:58;;;;;;;14.80;7.40;;;;;;;;;;103850;1292;547919;-77
2023/08/31 07:46:35;;;;;;;11.80;6.60;;;;;;;;;;103507;1293;547790;-80
2023/08/31 07:50:14;;;;;;;9.80;6.70;;;;;;;;;;103689;1301;547458;-82
2023/08/31 07:53:51;;;;;;;10.90;7.70;;;;;;;;;;103754;1293;547970;-80
2023/08/31 07:57:28;;;;;;;10.20;8.10;;;;;;;;;;103664;1292;548089;-80
2023/08/31 08:01:05;;;;;;;11.50;7.60;;;;;;;;;;103536;1295;548397;-82
2023/08/31 08:04:45;;;;;;;10.60;6.80;;;;;;;;;;103554;1291;548144;-81
2023/08/31 08:08:20;;;;;;;9.50;6.50;;;;;;;;;;103599;1291;547974;-80
2023/08/31 08:11:57;;;;;;;8.60;7.10;;;;;;;;;;103794;1292;548026;-82
2023/08/31 08:15:35;;;;;;;9.70;6.00;;;;;;;;;;103923;1288;547862;-80
2023/08/31 08:19:12;;;;;;;9.30;5.40;;;;;;;;;;103743;1289;548440;-81
2023/08/31 08:22:52;;;;;;;9.50;6.60;;;;;;;;;;103696;1289;545888;-80
2023/08/31 08:26:28;;;;;;;10.10;6.80;;;;;;;;;;103636;1298;547941;-80
2023/08/31 08:30:05;;;;;;;10.40;6.50;;;;;;;;;;103540;1291;547917;-79
2023/08/31 08:33:42;;;;;;;12.70;6.20;;;;;;;;;;103666;1289;548486;-79
2023/08/31 08:37:14;;;;;;;9.60;6.40;;;;;;;;;;103773;1290;545923;-77
2023/08/31 08:40:52;;;;;;;10.50;7.10;;;;;;;;;;103740;1290;544771;-77
2023/08/31 08:44:33;;;;;;;9.60;6.30;;;;;;;;;;103772;1288;545421;-77
2023/08/31 08:48:09;;;;;;;8.10;4.90;;;;;;;;;;104314;1287;544973;-79
2023/08/31 08:51:46;;;;;;;7.80;4.20;;;;;;;;;;103727;1291;545734;-75
2023/08/31 08:55:27;;;;;;;18.10;4.90;;;;;;;;;;103591;1292;547736;-75
2023/08/31 08:59:05;;;;;;;19.90;3.90;;;;;;;;;;103696;1289;548554;-82
2023/08/31 09:02:42;;;;;;;14.50;3.80;;;;;;;;;;103643;1291;548154;-77
2023/08/31 09:06:20;;;;;;;6.40;2.70;;;;;;;;;;103673;1289;548214;-76
2023/08/31 09:09:52;;;;;;;7.70;3.20;;;;;;;;;;103889;1289;545334;-77
2023/08/31 09:13:34;;;;;;;10.40;3.00;;;;;;;;;;103666;1291;548201;-75
2023/08/31 09:17:12;;;;;;;15.60;3.40;;;;;;;;;;103561;1295;548147;-78
2023/08/31 09:20:50;;;;;;;10.20;2.60;;;;;;;;;;103734;1291;548419;-79
2023/08/31 09:24:27;;;;;;;13.20;3.10;;;;;;;;;;103630;1292;547773;-76
2023/08/31 09:27:59;;;;;;;5.70;2.70;;;;;;;;;;104196;1285;545692;-75
2023/08/31 09:31:36;;;;;;;6.70;2.70;;;;;;;;;;103827;1291;545428;-76
2023/08/31 09:35:13;;;;;;;6.70;2.80;;;;;;;;;;104327;1290;544997;-84
2023/08/31 09:38:58;;;;;;;8.50;3.30;;;;;;;;;;103596;1295;547804;-78
2023/08/31 09:42:36;;;;;;;8.70;3.60;;;;;;;;;;103993;1288;544810;-77
2023/08/31 09:46:13;;;;;;;7.80;4.00;;;;;;;;;;103317;1308;545213;-82
2023/08/31 09:49:49;;;;;;;9.10;4.10;;;;;;;;;;103629;1291;547772;-78
2023/08/31 09:53:29;;;;;;;6.90;4.10;;;;;;;;;;103713;1289;547808;-77
2023/08/31 09:57:04;;;;;;;7.60;4.10;;;;;;;;;;103751;1301;547761;-78
2023/08/31 10:00:42;;;;;;;7.90;4.10;;;;;;;;;;104464;1285;548038;-78
2023/08/31 10:04:19;;;;;;;8.00;3.70;;;;;;;;;;103657;1291;547819;-78
2023/08/31 10:07:57;;;;;;;8.60;4.10;;;;;;;;;;104303;1286;548450;-78
2023/08/31 10:11:35;;;;;;;9.00;4.50;;;;;;;;;;103703;1292;548532;-78
2023/08/31 10:15:06;;;;;;;7.30;3.80;;;;;;;;;;103740;1292;545257;-77
2023/08/31 10:18:49;;;;;;;7.50;3.50;;;;;;;;;;103627;1289;548230;-79
2023/08/31 10:22:26;;;;;;;8.80;3.60;;;;;;;;;;103576;1295;547976;-79
2023/08/31 10:26:00;;;;;;;7.50;3.40;;;;;;;;;;103895;1288;546659;-80
2023/08/31 10:29:41;;;;;;;8.40;3.50;;;;;;;;;;103767;1289;548165;-81
2023/08/31 10:33:22;;;;;;;7.30;2.90;;;;;;;;;;103855;1288;547952;-84
2023/08/31 10:36:56;;;;;;;6.90;2.80;;;;;;;;;;103689;1294;547804;-79
2023/08/31 10:40:34;;;;;;;7.70;3.00;;;;;;;;;;103787;1291;548551;-79
2023/08/31 10:44:34;;;;;;;6.50;3.00;;;;;;;;;;103593;1290;545404;-80
2023/08/31 10:47:48;;;;;;;8.80;3.60;;;;;;;;;;103551;1289;548210;-79
2023/08/31 10:51:27;;;;;;;5.70;2.80;;;;;;;;;;103766;1295;547948;-79
2023/08/31 10:55:04;;;;;;;8.30;3.00;;;;;;;;;;103477;1291;547803;-82
2023/08/31 10:58:41;;;;;;;6.80;3.30;;;;;;;;;;103693;1295;547979;-79
2023/08/31 11:02:51;;;;;;;16.20;4.00;;;;;;;;;;103700;1292;547961;-83
2023/08/31 11:05:56;;;;;;;7.50;3.30;;;;;;;;;;103601;1292;547994;-77
2023/08/31 11:09:34;;;;;;;6.30;2.70;;;;;;;;;;103593;1295;547808;-79
2023/08/31 11:13:19;;;;;;;11.30;2.90;;;;;;;;;;103841;1292;545761;-76
2023/08/31 11:16:43;;;;;;;8.90;3.00;;;;;;;;;;103503;1292;544980;-79
2023/08/31 11:20:30;;;;;;;5.50;2.40;;;;;;;;;;103734;1292;547817;-81
2023/08/31 11:24:03;;;;;;;6.20;2.50;;;;;;;;;;103584;1292;548427;-82
2023/08/31 11:27:41;;;;;;;5.00;2.30;;;;;;;;;;103563;1292;547999;-78
2023/08/31 11:31:25;;;;;;;8.10;2.20;;;;;;;;;;103618;1295;547904;-80
2023/08/31 11:34:55;;;;;;;21.00;3.50;;;;;;;;;;104477;1282;548152;-79
2023/08/31 11:38:33;;;;;;;5.90;2.50;;;;;;;;;;103661;1290;547988;-83
2023/08/31 11:42:10;;;;;;;5.10;2.10;;;;;;;;;;103595;1296;545540;-78
2023/08/31 11:45:48;;;;;;;5.80;2.30;;;;;;;;;;103466;1293;548001;-76
2023/08/31 11:49:26;;;;;;;7.50;2.50;;;;;;;;;;104105;1286;549113;-77
2023/08/31 11:53:03;;;;;;;6.10;2.30;;;;;;;;;;103572;1295;548668;-81
2023/08/31 11:56:46;;;;;;;5.20;2.10;;;;;;;;;;103818;1289;544955;-76
2023/08/31 12:00:16;;;;;;;6.50;2.60;;;;;;;;;;104030;1292;546364;-77
2023/08/31 12:03:55;;;;;;;9.00;2.10;;;;;;;;;;103568;1295;548020;-78
2023/08/31 12:07:29;;;;;;;9.60;2.40;;;;;;;;;;104052;1289;547883;-78
2023/08/31 12:11:10;;;;;;;11.00;2.70;;;;;;;;;;103637;1292;546157;-78
2023/08/31 12:14:52;;;;;;;19.20;3.20;;;;;;;;;;103587;1292;547956;-82
2023/08/31 12:18:20;;;;;;;6.90;2.30;;;;;;;;;;103805;1289;545954;-76
2023/08/31 12:22:03;;;;;;;5.70;2.40;;;;;;;;;;103633;1294;548000;-80
2023/08/31 12:25:45;;;;;;;7.00;2.40;;;;;;;;;;103595;1292;547913;-77
2023/08/31 12:29:17;;;;;;;6.00;2.00;;;;;;;;;;103619;1292;548085;-76
2023/08/31 12:32:52;;;;;;;7.00;2.50;;;;;;;;;;103610;1295;548089;-78
2023/08/31 12:36:27;;;;;;;6.20;2.40;;;;;;;;;;103736;1292;546328;-77
2023/08/31 12:40:10;;;;;;;6.50;2.30;;;;;;;;;;103636;1289;545760;-76
2023/08/31 12:43:42;;;;;;;6.80;2.70;;;;;;;;;;103914;1292;544913;-76
2023/08/31 12:47:19;;;;;;;6.70;2.60;;;;;;;;;;103867;1289;544837;-76
2023/08/31 12:51:02;;;;;;;8.90;1.90;;;;;;;;;;103384;1294;548139;-75
2023/08/31 12:54:39;;;;;;;4.00;1.90;;;;;;;;;;103448;1297;548099;-75
2023/08/31 12:58:17;;;;;;;3.50;1.80;;;;;;;;;;103549;1290;547926;-78
2023/08/31 13:01:54;;;;;;;4.20;2.20;;;;;;;;;;103597;1295;548632;-78
2023/08/31 13:05:32;;;;;;;5.00;2.20;;;;;;;;;;103585;1295;548130;-78
2023/08/31 13:09:09;;;;;;;5.60;2.60;;;;;;;;;;103603;1292;547973;-78
2023/08/31 13:12:47;;;;;;;5.40;2.20;;;;;;;;;;103827;1292;548180;-81
2023/08/31 13:16:24;;;;;;;9.70;2.40;;;;;;;;;;103463;1292;548132;-78
2023/08/31 13:20:03;;;;;;;6.00;2.20;;;;;;;;;;103482;1291;548116;-78
2023/08/31 13:34:03;;;;;;;8.30;2.40;;;;;;;;;;104423;1285;553435;-76
2023/08/31 13:36:54;;;;;;;6.00;2.40;;;;;;;;;;103772;1291;546224;-81
2023/08/31 13:40:37;;;;;;;8.10;4.00;;;;;;;;;;103639;1289;548584;-77
2023/08/31 13:44:09;;;;;;;6.40;2.60;;;;;;;;;;103742;1295;544733;-80
2023/08/31 13:47:52;;;;;;;7.00;2.80;;;;;;;;;;103662;1291;548000;-79
2023/08/31 13:51:30;;;;;;;5.60;2.60;;;;;;;;;;103516;1295;547792;-79
2023/08/31 13:55:07;;;;;;;7.10;3.30;;;;;;;;;;103660;1292;548112;-78
2023/08/31 13:58:44;;;;;;;7.60;3.30;;;;;;;;;;103629;1292;548062;-79
2023/08/31 14:02:22;;;;;;;6.00;2.10;;;;;;;;;;103582;1295;548404;-79
2023/08/31 14:05:59;;;;;;;4.50;1.90;;;;;;;;;;103653;1292;547934;-84
2023/08/31 14:09:37;;;;;;;4.70;2.20;;;;;;;;;;103722;1291;548113;-79
2023/08/31 14:13:14;;;;;;;4.70;1.90;;;;;;;;;;103550;1295;548041;-79
2023/08/31 14:16:52;;;;;;;4.10;2.00;;;;;;;;;;103525;1290;548357;-78
2023/08/31 14:20:29;;;;;;;4.00;2.00;;;;;;;;;;103260;1295;547965;-79
2023/08/31 14:24:07;;;;;;;5.40;1.90;;;;;;;;;;103475;1298;548240;-78
2023/08/31 14:27:41;;;;;;;7.40;2.20;;;;;;;;;;103568;1295;547863;-82
2023/08/31 14:31:22;;;;;;;4.30;2.20;;;;;;;;;;104097;1289;547878;-79
2023/08/31 14:34:59;;;;;;;6.90;2.40;;;;;;;;;;103612;1298;548382;-79
2023/08/31 14:38:36;;;;;;;6.40;2.10;;;;;;;;;;103646;1292;548033;-82
2023/08/31 14:42:20;;;;;;;5.10;2.00;;;;;;;;;;103636;1290;546780;-78
2023/08/31 14:45:51;;;;;;;7.10;2.40;;;;;;;;;;103595;1291;548002;-79
2023/08/31 14:49:29;;;;;;;5.00;2.00;;;;;;;;;;103574;1292;548433;-74
2023/08/31 14:53:06;;;;;;;4.70;2.00;;;;;;;;;;103532;1292;547957;-77
2023/08/31 14:56:44;;;;;;;7.30;2.30;;;;;;;;;;103620;1292;548328;-79
2023/08/31 15:00:16;;;;;;;5.10;2.00;;;;;;;;;;104148;1289;544818;-77
2023/08/31 15:03:59;;;;;;;3.80;2.00;;;;;;;;;;103536;1292;547855;-82
2023/08/31 15:07:36;;;;;;;4.70;2.00;;;;;;;;;;103717;1292;547951;-77
2023/08/31 15:11:09;;;;;;;4.90;1.70;;;;;;;;;;103834;1292;545549;-79
2023/08/31 15:14:45;;;;;;;4.50;1.70;;;;;;;;;;103658;1295;545221;-77
2023/08/31 15:18:23;;;;;;;4.70;1.80;;;;;;;;;;103814;1292;545961;-77
2023/08/31 15:22:00;;;;;;;3.60;1.60;;;;;;;;;;104000;1291;544950;-83
2023/08/31 15:25:43;;;;;;;4.80;1.90;;;;;;;;;;103643;1289;547810;-74
2023/08/31 15:29:16;;;;;;;4.20;1.80;;;;;;;;;;104467;1282;544925;-78
2023/08/31 15:33:03;;;;;;;3.90;1.60;;;;;;;;;;103653;1291;547995;-76
2023/08/31 15:36:36;;;;;;;12.60;1.80;;;;;;;;;;103641;1290;547810;-77
2023/08/31 15:40:08;;;;;;;5.10;2.00;;;;;;;;;;103764;1292;544882;-76
2023/08/31 15:43:51;;;;;;;4.20;1.80;;;;;;;;;;103611;1292;547937;-77
2023/08/31 15:47:23;;;;;;;5.90;1.90;;;;;;;;;;103823;1289;545563;-78
2023/08/31 15:51:06;;;;;;;5.60;1.70;;;;;;;;;;103646;1291;548101;-77
2023/08/31 15:54:39;;;;;;;4.50;1.90;;;;;;;;;;103926;1289;545674;-76
2023/08/31 15:58:15;;;;;;;4.80;1.80;;;;;;;;;;103824;1292;544717;-79
2023/08/31 16:01:52;;;;;;;4.50;1.80;;;;;;;;;;103988;1294;544812;-78
2023/08/31 16:05:36;;;;;;;4.50;1.70;;;;;;;;;;103823;1292;547960;-81
2023/08/31 16:09:07;;;;;;;4.80;1.70;;;;;;;;;;104046;1292;544928;-77
2023/08/31 16:12:45;;;;;;;5.20;1.80;;;;;;;;;;103750;1291;544988;-78
2023/08/31 16:16:23;;;;;;;5.00;1.80;;;;;;;;;;103879;1291;544785;-81
2023/08/31 16:20:08;;;;;;;5.50;1.80;;;;;;;;;;103708;1296;548539;-78
2023/08/31 16:23:38;;;;;;;4.70;2.00;;;;;;;;;;103735;1291;545218;-75
2023/08/31 16:27:20;;;;;;;6.90;2.30;;;;;;;;;;103472;1291;547782;-77
2023/08/31 16:30:52;;;;;;;4.40;2.00;;;;;;;;;;103809;1292;544726;-77
2023/08/31 16:34:35;;;;;;;5.00;2.00;;;;;;;;;;103510;1292;547903;-76
2023/08/31 16:38:07;;;;;;;6.40;3.20;;;;;;;;;;103892;1289;544784;-73
2023/08/31 16:41:45;;;;;;;8.10;3.20;;;;;;;;;;103706;1295;544860;-77
2023/08/31 16:45:23;;;;;;;6.50;2.60;;;;;;;;;;103552;1294;545527;-82
2023/08/31 16:49:05;;;;;;;6.10;2.00;;;;;;;;;;103258;1301;545799;-82
2023/08/31 16:52:37;;;;;;;4.70;1.70;;;;;;;;;;103846;1292;544858;-83
2023/08/31 16:56:20;;;;;;;3.50;1.60;;;;;;;;;;103654;1289;548059;-80
2023/08/31 16:59:48;;;;;;;4.70;1.60;;;;;;;;;;104488;1286;546083;-84
2023/08/31 17:03:33;;;;;;;4.70;1.60;;;;;;;;;;104167;1286;549200;-83
2023/08/31 17:07:08;;;;;;;4.80;1.80;;;;;;;;;;104015;1289;545121;-83
2023/08/31 17:10:51;;;;;;;4.50;1.70;;;;;;;;;;103523;1291;547936;-84
2023/08/31 17:14:28;;;;;;;3.80;1.50;;;;;;;;;;103631;1292;549245;-85
2023/08/31 17:18:06;;;;;;;4.60;1.60;;;;;;;;;;104421;1282;547979;-83
2023/08/31 17:21:43;;;;;;;3.90;1.50;;;;;;;;;;103458;1292;548753;-74
2023/08/31 17:25:15;;;;;;;5.90;1.80;;;;;;;;;;103757;1289;545010;-77
2023/08/31 17:28:53;;;;;;;4.30;1.80;;;;;;;;;;104592;1282;545392;-76
2023/08/31 17:32:30;;;;;;;7.30;2.00;;;;;;;;;;104829;1281;544849;-78
2023/08/31 17:36:15;;;;;;;8.30;2.30;;;;;;;;;;103576;1295;547996;-77
2023/08/31 17:39:45;;;;;;;11.00;3.20;;;;;;;;;;103753;1292;544936;-80
2023/08/31 17:43:28;;;;;;;10.70;2.90;;;;;;;;;;103608;1292;547798;-79
2023/08/31 17:47:00;;;;;;;7.50;2.70;;;;;;;;;;103699;1291;545010;-76
2023/08/31 17:50:37;;;;;;;6.30;2.20;;;;;;;;;;103761;1289;545996;-75
2023/08/31 17:54:15;;;;;;;8.90;2.30;;;;;;;;;;104012;1291;545996;-75
2023/08/31 17:57:52;;;;;;;6.10;1.90;;;;;;;;;;104026;1288;545683;-76
2023/08/31 18:01:30;;;;;;;5.10;1.90;;;;;;;;;;103770;1292;545176;-76
2023/08/31 18:05:04;;;;;;;5.40;1.90;;;;;;;;;;103945;1301;545881;-79
2023/08/31 18:08:51;;;;;;;5.80;1.90;;;;;;;;;;103631;1302;547820;-80
2023/08/31 18:12:24;;;;;;;4.60;1.90;;;;;;;;;;103752;1292;545365;-76
2023/08/31 18:16:06;;;;;;;6.30;1.60;;;;;;;;;;103575;1291;548070;-76
2023/08/31 18:19:38;;;;;;;4.90;1.80;;;;;;;;;;103806;1292;544895;-76
2023/08/31 18:23:16;;;;;;;5.70;1.70;;;;;;;;;;103702;1292;545178;-79
2023/08/31 18:26:54;;;;;;;4.50;1.80;;;;;;;;;;103763;1291;545104;-78
2023/08/31 18:30:31;;;;;;;5.00;1.90;;;;;;;;;;103769;1290;545115;-76
2023/08/31 18:34:08;;;;;;;5.20;2.10;;;;;;;;;;103759;1292;545074;-83
2023/08/31 18:37:46;;;;;;;5.40;1.90;;;;;;;;;;103787;1290;544824;-76
2023/08/31 18:41:23;;;;;;;4.40;1.80;;;;;;;;;;103784;1295;545028;-76
2023/08/31 18:45:00;;;;;;;8.40;2.10;;;;;;;;;;103808;1291;545379;-79
2023/08/31 18:48:44;;;;;;;5.10;2.20;;;;;;;;;;103332;1298;548191;-77
2023/08/31 18:52:21;;;;;;;5.30;2.30;;;;;;;;;;103440;1295;548112;-76
2023/08/31 18:55:57;;;;;;;5.60;1.90;;;;;;;;;;103792;1289;546113;-76
2023/08/31 18:59:36;;;;;;;7.50;2.50;;;;;;;;;;103605;1294;548008;-76
2023/08/31 19:03:14;;;;;;;7.40;2.60;;;;;;;;;;103617;1292;547755;-76
2023/08/31 19:06:52;;;;;;;6.60;3.30;;;;;;;;;;103297;1294;547763;-76
2023/08/31 19:10:28;;;;;;;9.20;3.10;;;;;;;;;;103747;1294;548548;-78
2023/08/31 19:14:06;;;;;;;9.60;3.30;;;;;;;;;;103589;1292;547783;-76
2023/08/31 19:17:38;;;;;;;7.80;2.70;;;;;;;;;;103788;1289;545303;-77
2023/08/31 19:21:22;;;;;;;9.10;4.10;;;;;;;;;;103636;1292;547911;-76
2023/08/31 19:24:50;;;;;;;10.30;4.30;;;;;;;;;;103795;1290;545017;-82
2023/08/31 19:28:38;;;;;;;7.90;3.40;;;;;;;;;;103572;1293;548349;-77
2023/08/31 19:32:11;;;;;;;11.00;3.60;;;;;;;;;;103745;1290;544854;-77
2023/08/31 19:35:53;;;;;;;9.90;3.50;;;;;;;;;;103830;1295;547875;-77
2023/08/31 19:39:25;;;;;;;8.60;3.50;;;;;;;;;;103615;1292;545405;-76
2023/08/31 19:43:11;;;;;;;8.70;3.70;;;;;;;;;;103617;1292;547914;-76
2023/08/31 19:46:40;;;;;;;9.00;3.60;;;;;;;;;;103536;1297;544738;-78
2023/08/31 19:50:17;;;;;;;9.80;3.80;;;;;;;;;;103996;1290;545006;-76
2023/08/31 19:53:55;;;;;;;10.10;3.90;;;;;;;;;;103516;1295;544986;-79
2023/08/31 19:57:31;;;;;;;8.90;3.40;;;;;;;;;;103731;1291;544918;-76
2023/08/31 20:01:09;;;;;;;10.10;3.40;;;;;;;;;;104318;1286;545385;-76
2023/08/31 20:04:47;;;;;;;7.90;3.00;;;;;;;;;;103818;1290;546511;-76
2023/08/31 20:08:25;;;;;;;48.20;5.40;;;;;;;;;;103861;1295;545951;-79
2023/08/31 20:12:07;;;;;;;5.60;2.70;;;;;;;;;;103770;1289;547793;-75
2023/08/31 20:15:45;;;;;;;5.50;2.30;;;;;;;;;;103618;1291;547765;-75
2023/08/31 20:19:17;;;;;;;6.50;2.20;;;;;;;;;;104181;1284;546247;-75
2023/08/31 20:22:54;;;;;;;5.40;2.00;;;;;;;;;;103772;1295;545436;-75
2023/08/31 20:26:32;;;;;;;3.70;1.60;;;;;;;;;;103753;1303;546018;-76
2023/08/31 20:30:11;;;;;;;4.20;1.80;;;;;;;;;;103887;1291;545041;-79
2023/08/31 20:33:46;;;;;;;5.00;1.70;;;;;;;;;;103791;1289;545530;-75
2023/08/31 20:37:22;;;;;;;3.70;1.50;;;;;;;;;;103783;1290;544705;-75
2023/08/31 20:41:04;;;;;;;4.20;1.50;;;;;;;;;;103751;1292;545026;-82
2023/08/31 20:44:44;;;;;;;3.90;1.60;;;;;;;;;;103621;1289;547861;-76
2023/08/31 20:48:22;;;;;;;4.70;1.60;;;;;;;;;;103914;1289;544978;-76
2023/08/31 20:51:59;;;;;;;5.60;1.60;;;;;;;;;;103815;1292;545353;-83
2023/08/31 20:55:34;;;;;;;6.10;1.80;;;;;;;;;;103891;1288;545668;-78
2023/08/31 21:09:56;;;;;;;5.70;2.50;;;;;;;;;;106809;1264;550155;-83
2023/08/31 21:12:50;;;;;;;5.00;2.20;;;;;;;;;;103700;1291;548468;-76
2023/08/31 21:16:26;;;;;;;7.10;2.30;;;;;;;;;;103769;1291;544745;-79
2023/08/31 21:20:04;;;;;;;4.90;1.90;;;;;;;;;;103718;1302;545332;-76
2023/08/31 21:23:40;;;;;;;5.10;1.90;;;;;;;;;;104038;1289;544905;-79
2023/08/31 21:38:05;;;;;;;5.00;1.90;;;;;;;;;;104707;1283;553675;-82
2023/08/31 21:40:53;;;;;;;4.80;1.90;;;;;;;;;;104228;1286;545012;-76
2023/08/31 21:55:19;;;;;;;6.00;2.30;;;;;;;;;;106930;1267;550065;-83
2023/08/31 21:58:12;;;;;;;6.00;2.00;;;;;;;;;;103735;1292;544999;-80
2023/08/31 22:01:59;;;;;;;5.10;2.30;;;;;;;;;;103654;1292;547983;-83
2023/08/31 22:05:26;;;;;;;7.60;2.20;;;;;;;;;;103731;1291;545031;-75
2023/08/31 22:09:05;;;;;;;9.20;2.70;;;;;;;;;;103770;1292;544925;-80
2023/08/31 22:12:42;;;;;;;7.40;2.60;;;;;;;;;;103772;1289;544762;-77
2023/08/31 22:16:19;;;;;;;6.00;2.20;;;;;;;;;;103982;1292;544785;-81
2023/08/31 22:20:07;;;;;;;5.20;1.90;;;;;;;;;;103286;1298;548153;-76
2023/08/31 22:23:39;;;;;;;6.20;2.70;;;;;;;;;;103476;1292;548121;-83
2023/08/31 22:27:18;;;;;;;6.80;2.40;;;;;;;;;;103733;1289;547915;-76
2023/08/31 22:30:49;;;;;;;5.60;2.60;;;;;;;;;;103775;1292;545344;-76
2023/08/31 22:34:35;;;;;;;6.00;2.50;;;;;;;;;;103862;1295;547994;-75
2023/08/31 22:38:04;;;;;;;7.00;2.20;;;;;;;;;;103800;1290;544904;-76
2023/08/31 22:41:43;;;;;;;5.70;2.50;;;;;;;;;;103814;1292;544975;-75
2023/08/31 22:45:19;;;;;;;6.50;2.40;;;;;;;;;;104048;1289;544870;-81
2023/08/31 22:48:58;;;;;;;5.60;2.40;;;;;;;;;;103969;1288;548029;-76
2023/08/31 22:52:30;;;;;;;5.40;2.30;;;;;;;;;;103980;1289;546069;-76
2023/08/31 22:56:29;;;;;;;6.70;2.60;;;;;;;;;;103505;1295;547989;-84
2023/08/31 22:59:59;;;;;;;7.40;2.50;;;;;;;;;;103951;1292;544777;-83
2023/08/31 23:13:55;;;;;;;5.50;2.20;;;;;;;;;;104776;1282;549876;-76
2023/08/31 23:16:53;;;;;;;5.70;1.90;;;;;;;;;;103999;1288;547999;-76
2023/08/31 23:20:30;;;;;;;5.90;2.00;;;;;;;;;;103579;1292;548219;-77
2023/08/31 23:24:00;;;;;;;4.10;1.60;;;;;;;;;;103881;1288;545246;-80
2023/08/31 23:28:02;;;;;;;5.40;1.60;;;;;;;;;;103670;1292;547904;-83
2023/08/31 23:31:19;;;;;;;5.50;1.70;;;;;;;;;;103784;1289;544792;-79
2023/08/31 23:34:54;;;;;;;4.10;1.50;;;;;;;;;;103976;1291;544610;-75
2023/08/31 23:39:15;;;;;;;4.50;1.70;;;;;;;;;;104834;1282;547904;-82
2023/08/31 23:53:24;;;;;;;4.80;1.60;;;;;;;;;;104551;1286;553449;-82
2023/08/31 23:56:05;;;;;;;5.40;1.70;;;;;;;;;;103789;1292;545180;-80
